createdAt,value
2022-11-07T00:00:27.698Z,74.89
2022-11-07T00:02:54.107Z,74.47
2022-11-07T00:05:20.687Z,74.66
2022-11-07T00:07:47.066Z,74.88
2022-11-07T00:10:13.496Z,74.63
2022-11-07T00:12:39.805Z,74.88
2022-11-07T00:15:06.561Z,74.16
2022-11-07T00:17:32.968Z,74.31
2022-11-07T00:19:59.364Z,74.63
2022-11-07T00:22:25.937Z,74.42
2022-11-07T00:24:52.504Z,75.04
2022-11-07T00:27:18.963Z,75.08
2022-11-07T00:29:45.493Z,74.77
2022-11-07T00:32:11.832Z,74.87
2022-11-07T00:34:38.229Z,75.52
2022-11-07T00:37:04.605Z,75.18
2022-11-07T00:39:30.972Z,74.41
2022-11-07T00:41:57.305Z,75.52
2022-11-07T00:44:23.626Z,75.26
2022-11-07T00:46:49.942Z,74.64
2022-11-07T00:49:16.332Z,75.28
2022-11-07T00:51:42.765Z,73.98
2022-11-07T00:54:09.121Z,74.94
2022-11-07T00:56:35.629Z,74.27
2022-11-07T00:59:02.042Z,74.87
2022-11-07T01:01:31.385Z,74.98
2022-11-07T01:04:16.833Z,74.61
2022-11-07T01:06:45.247Z,74.69
2022-11-07T01:09:18.513Z,75.63
2022-11-07T01:11:45.951Z,75.27
2022-11-07T01:14:16.336Z,74.94
2022-11-07T01:16:42.925Z,75.16
2022-11-07T01:19:09.832Z,76.04
2022-11-07T01:21:41.106Z,76.27
2022-11-07T01:24:08.928Z,76.41
2022-11-07T01:26:37.412Z,76.77
2022-11-07T01:29:04.312Z,76.90
2022-11-07T01:31:33.535Z,77.45
2022-11-07T01:34:00.742Z,77.74
2022-11-07T01:36:27.729Z,77.04
2022-11-07T01:38:54.663Z,77.49
2022-11-07T01:41:25.394Z,77.00
2022-11-07T01:43:56.125Z,76.76
2022-11-07T01:46:30.586Z,77.85
2022-11-07T01:49:12.776Z,77.95
2022-11-07T01:51:43.844Z,77.11
2022-11-07T01:54:13.163Z,76.96
2022-11-07T01:56:43.105Z,78.06
2022-11-07T01:59:14.031Z,76.99
2022-11-07T02:01:41.339Z,77.17
2022-11-07T02:04:09.371Z,78.07
2022-11-07T02:06:47.855Z,77.01
2022-11-07T02:09:14.673Z,77.87
2022-11-07T02:11:41.085Z,78.19
2022-11-07T02:14:07.720Z,77.62
2022-11-07T02:16:37.173Z,76.35
2022-11-07T02:19:10.663Z,76.88
2022-11-07T02:21:45.973Z,77.55
2022-11-07T02:24:38.522Z,77.59
2022-11-07T02:27:11.434Z,77.69
2022-11-07T02:29:40.170Z,77.17
2022-11-07T02:32:09.129Z,76.61
2022-11-07T02:34:35.547Z,77.22
2022-11-07T02:37:05.106Z,77.17
2022-11-07T02:39:31.491Z,76.70
2022-11-07T02:42:00.826Z,77.92
2022-11-07T02:44:29.473Z,77.41
2022-11-07T02:46:56.599Z,76.80
2022-11-07T02:49:22.984Z,77.38
2022-11-07T02:51:49.284Z,77.15
2022-11-07T02:54:15.586Z,78.60
2022-11-07T02:56:41.957Z,77.98
2022-11-07T02:59:08.252Z,76.98
2022-11-07T03:01:34.696Z,77.77
2022-11-07T03:04:01.092Z,77.44
2022-11-07T03:06:27.449Z,77.18
2022-11-07T03:08:53.820Z,77.12
2022-11-07T03:11:20.530Z,76.81
2022-11-07T03:13:48.229Z,76.98
2022-11-07T03:16:15.749Z,76.84
2022-11-07T03:18:42.183Z,78.24
2022-11-07T03:21:08.602Z,77.57
2022-11-07T03:23:36.127Z,76.75
2022-11-07T03:26:03.527Z,77.47
2022-11-07T03:28:30.030Z,77.23
2022-11-07T03:31:00.634Z,77.14
2022-11-07T03:33:28.882Z,76.38
2022-11-07T03:35:55.208Z,76.35
2022-11-07T03:38:21.525Z,77.20
2022-11-07T03:40:47.934Z,77.45
2022-11-07T03:43:14.636Z,76.57
2022-11-07T03:45:41.633Z,76.86
2022-11-07T03:48:07.993Z,77.18
2022-11-07T03:50:34.344Z,77.38
2022-11-07T03:53:00.691Z,77.60
2022-11-07T03:55:27.065Z,77.41
2022-11-07T03:57:53.419Z,77.03
2022-11-07T04:00:19.827Z,76.07
2022-11-07T04:02:46.443Z,76.57
2022-11-07T04:05:13.284Z,76.64
2022-11-07T04:07:39.694Z,78.18
2022-11-07T04:10:06.305Z,77.67
2022-11-07T04:12:51.126Z,76.92
2022-11-07T04:15:36.523Z,76.68
2022-11-07T04:18:02.921Z,77.28
2022-11-07T04:20:29.433Z,76.49
2022-11-07T04:22:55.768Z,75.61
2022-11-07T04:25:42.025Z,75.91
2022-11-07T04:28:08.413Z,75.74
2022-11-07T04:30:34.944Z,75.83
2022-11-07T04:33:02.388Z,76.17
2022-11-07T04:35:31.511Z,75.39
2022-11-07T04:37:59.042Z,75.70
2022-11-07T04:40:25.743Z,76.12
2022-11-07T04:42:52.200Z,75.79
2022-11-07T04:45:18.730Z,77.29
2022-11-07T04:47:45.558Z,75.96
2022-11-07T04:50:14.536Z,76.60
2022-11-07T04:52:40.970Z,75.48
2022-11-07T04:55:08.782Z,76.13
2022-11-07T04:57:35.117Z,76.00
2022-11-07T05:00:02.475Z,75.47
2022-11-07T05:02:29.020Z,75.32
2022-11-07T05:04:55.474Z,75.92
2022-11-07T05:07:22.001Z,75.28
2022-11-07T05:09:48.362Z,75.22
2022-11-07T05:12:14.886Z,75.96
2022-11-07T05:14:41.351Z,75.23
2022-11-07T05:17:07.761Z,74.56
2022-11-07T05:19:34.267Z,74.41
2022-11-07T05:22:19.380Z,75.36
2022-11-07T05:24:45.760Z,74.78
2022-11-07T05:27:19.492Z,75.16
2022-11-07T05:29:45.922Z,74.70
2022-11-07T05:32:12.653Z,75.57
2022-11-07T05:34:39.200Z,74.33
2022-11-07T05:37:09.532Z,74.51
2022-11-07T05:39:36.679Z,74.36
2022-11-07T05:42:04.031Z,74.27
2022-11-07T05:44:31.200Z,75.00
2022-11-07T05:46:58.102Z,74.73
2022-11-07T05:49:24.921Z,74.27
2022-11-07T05:51:51.893Z,74.30
2022-11-07T05:54:18.268Z,74.59
2022-11-07T05:56:44.851Z,74.21
2022-11-07T05:59:11.373Z,73.73
2022-11-07T06:01:37.943Z,74.24
2022-11-07T06:04:05.382Z,74.07
2022-11-07T06:06:31.781Z,74.62
2022-11-07T06:08:58.425Z,74.28
2022-11-07T06:11:24.824Z,74.16
2022-11-07T06:13:54.038Z,74.45
2022-11-07T06:16:20.454Z,73.88
2022-11-07T06:18:46.807Z,74.48
2022-11-07T06:21:13.926Z,74.30
2022-11-07T06:23:40.351Z,73.39
2022-11-07T06:26:07.006Z,73.64
2022-11-07T06:28:33.449Z,73.37
2022-11-07T06:31:03.851Z,74.38
2022-11-07T06:33:30.217Z,73.58
2022-11-07T06:36:08.329Z,74.48
2022-11-07T06:38:35.301Z,74.14
2022-11-07T06:41:10.854Z,74.76
2022-11-07T06:43:37.797Z,73.51
2022-11-07T06:46:07.000Z,74.34
2022-11-07T06:48:33.874Z,74.53
2022-11-07T06:51:02.006Z,74.75
2022-11-07T06:53:28.855Z,74.20
2022-11-07T06:55:55.974Z,74.36
2022-11-07T06:58:22.888Z,75.00
2022-11-07T07:00:49.249Z,74.84
2022-11-07T07:03:15.857Z,75.51
2022-11-07T07:05:42.770Z,75.22
2022-11-07T07:08:11.144Z,74.75
2022-11-07T07:10:45.111Z,75.42
2022-11-07T07:13:14.689Z,74.96
2022-11-07T07:15:51.110Z,75.56
2022-11-07T07:18:18.111Z,75.29
2022-11-07T07:20:45.223Z,73.92
2022-11-07T07:23:11.542Z,75.83
2022-11-07T07:25:37.860Z,75.00
2022-11-07T07:28:04.178Z,74.22
2022-11-07T07:30:30.570Z,73.84
2022-11-07T07:32:56.981Z,75.11
2022-11-07T07:35:23.269Z,75.52
2022-11-07T07:37:53.089Z,73.74
2022-11-07T07:40:20.592Z,74.20
2022-11-07T07:42:47.026Z,74.09
2022-11-07T07:45:14.854Z,75.28
2022-11-07T07:47:41.730Z,73.89
2022-11-07T07:50:10.652Z,73.86
2022-11-07T07:52:37.048Z,74.63
2022-11-07T07:55:03.854Z,73.65
2022-11-07T07:57:30.181Z,74.55
2022-11-07T07:59:56.932Z,74.26
2022-11-07T08:02:23.306Z,74.44
2022-11-07T08:04:49.716Z,74.32
2022-11-07T08:07:16.246Z,74.00
2022-11-07T08:09:42.565Z,73.38
2022-11-07T08:12:09.091Z,72.96
2022-11-07T08:14:35.551Z,73.42
2022-11-07T08:17:02.360Z,73.14
2022-11-07T08:19:28.672Z,73.22
2022-11-07T08:21:55.111Z,73.13
2022-11-07T08:24:21.423Z,72.84
2022-11-07T08:26:47.712Z,73.27
2022-11-07T08:29:14.055Z,73.42
2022-11-07T08:31:40.468Z,73.88
2022-11-07T08:34:06.853Z,73.84
2022-11-07T08:36:33.668Z,73.75
2022-11-07T08:39:00.010Z,73.94
2022-11-07T08:41:26.397Z,73.19
2022-11-07T08:43:52.736Z,72.73
2022-11-07T08:46:19.081Z,73.62
2022-11-07T08:48:45.413Z,73.79
2022-11-07T08:51:11.714Z,73.00
2022-11-07T08:53:38.078Z,72.88
2022-11-07T08:56:06.542Z,73.20
2022-11-07T08:58:33.681Z,73.17
2022-11-07T09:01:00.851Z,74.16
2022-11-07T09:06:13.749Z,74.80
2022-11-07T09:08:46.717Z,76.01
2022-11-07T09:11:15.510Z,76.20
2022-11-07T09:13:41.962Z,78.02
2022-11-07T09:16:08.266Z,80.21
2022-11-07T09:18:34.634Z,80.48
2022-11-07T09:21:00.988Z,81.90
2022-11-07T09:23:27.789Z,82.45
2022-11-07T09:25:54.251Z,81.93
2022-11-07T09:28:20.595Z,84.21
2022-11-07T09:30:46.952Z,82.81
2022-11-07T09:33:13.594Z,84.36
2022-11-07T09:35:40.102Z,83.97
2022-11-07T09:38:06.404Z,84.70
2022-11-07T09:41:05.276Z,84.30
2022-11-07T09:43:49.669Z,84.43
2022-11-07T09:46:43.037Z,84.32
2022-11-07T09:49:21.793Z,84.61
2022-11-07T09:51:56.512Z,84.16
2022-11-07T09:54:27.779Z,83.99
2022-11-07T09:56:57.926Z,83.37
2022-11-07T09:59:29.761Z,82.58
2022-11-07T10:01:56.206Z,82.38
2022-11-07T10:04:26.102Z,81.69
2022-11-07T10:07:00.144Z,81.92
2022-11-07T10:09:52.590Z,81.47
2022-11-07T10:12:40.434Z,80.94
2022-11-07T10:15:26.709Z,81.68
2022-11-07T10:18:16.368Z,81.29
2022-11-07T10:21:36.361Z,81.29
2022-11-07T10:24:23.122Z,80.78
2022-11-07T10:26:49.488Z,81.29
2022-11-07T10:29:21.598Z,80.45
2022-11-07T10:31:56.030Z,79.84
2022-11-07T10:34:37.726Z,79.29
2022-11-07T10:37:04.583Z,78.91
2022-11-07T10:39:32.146Z,77.23
2022-11-07T10:42:09.315Z,75.68
2022-11-07T10:44:38.382Z,75.03
2022-11-07T10:47:18.152Z,74.20
2022-11-07T10:50:16.849Z,74.27
2022-11-07T10:52:55.709Z,73.57
2022-11-07T10:55:22.837Z,73.07
2022-11-07T10:58:05.708Z,73.62
2022-11-07T11:00:34.334Z,72.75
2022-11-07T11:03:00.729Z,73.20
2022-11-07T11:05:43.344Z,73.61
2022-11-07T11:08:21.087Z,74.16
2022-11-07T11:10:48.278Z,74.34
2022-11-07T11:13:32.984Z,73.89
2022-11-07T11:16:08.214Z,74.29
2022-11-07T11:18:34.533Z,74.28
2022-11-07T11:21:03.057Z,74.27
2022-11-07T11:23:31.766Z,73.09
2022-11-07T11:26:01.029Z,72.24
2022-11-07T11:28:36.760Z,72.59
2022-11-07T11:31:08.473Z,72.23
2022-11-07T11:33:42.242Z,72.16
2022-11-07T11:36:25.189Z,70.95
2022-11-07T11:38:54.545Z,69.98
2022-11-07T11:41:37.893Z,69.64
2022-11-07T11:44:23.543Z,69.50
2022-11-07T11:47:02.268Z,69.14
2022-11-07T11:49:30.522Z,68.67
2022-11-07T11:52:03.388Z,68.96
2022-11-07T11:54:29.707Z,68.76
2022-11-07T11:57:01.085Z,68.21
2022-11-07T11:59:45.091Z,67.67
2022-11-07T12:02:17.488Z,68.19
2022-11-07T12:04:55.960Z,68.10
2022-11-07T12:07:58.951Z,67.76
2022-11-07T12:10:27.963Z,68.10
2022-11-07T12:13:06.497Z,67.78
2022-11-07T12:15:40.968Z,67.20
2022-11-07T12:18:24.740Z,67.13
2022-11-07T12:21:05.520Z,66.78
2022-11-07T12:23:49.881Z,67.22
2022-11-07T12:26:35.832Z,68.00
2022-11-07T12:29:22.791Z,67.84
2022-11-07T12:32:19.826Z,67.29
2022-11-07T12:35:15.270Z,68.44
2022-11-07T12:38:10.949Z,68.42
2022-11-07T12:40:59.983Z,68.01
2022-11-07T12:43:42.029Z,68.00
2022-11-07T12:46:19.132Z,67.90
2022-11-07T12:49:00.016Z,67.65
2022-11-07T12:51:54.300Z,67.75
2022-11-07T12:54:39.513Z,67.92
2022-11-07T12:57:20.992Z,68.45
2022-11-07T12:59:52.188Z,68.05
2022-11-07T13:02:30.372Z,67.81
2022-11-07T13:05:15.360Z,67.86
2022-11-07T13:07:57.119Z,67.24
2022-11-07T13:10:34.963Z,67.42
2022-11-07T13:13:05.038Z,67.43
2022-11-07T13:15:53.788Z,66.55
2022-11-07T13:18:27.934Z,67.46
2022-11-07T13:21:01.221Z,67.28
2022-11-07T13:23:28.633Z,66.93
2022-11-07T13:26:14.842Z,67.32
2022-11-07T13:28:56.397Z,66.77
2022-11-07T13:31:45.461Z,66.38
2022-11-07T13:34:17.994Z,67.21
2022-11-07T13:36:47.017Z,65.82
2022-11-07T13:39:14.726Z,65.89
2022-11-07T13:41:44.374Z,65.69
2022-11-07T13:44:17.208Z,65.82
2022-11-07T13:46:49.137Z,65.60
2022-11-07T13:49:26.845Z,65.98
2022-11-07T13:51:56.477Z,66.53
2022-11-07T13:54:28.598Z,65.84
2022-11-07T13:57:05.085Z,65.67
2022-11-07T13:59:43.883Z,66.33
2022-11-07T14:02:30.317Z,66.53
2022-11-07T14:05:20.804Z,67.00
2022-11-07T14:08:04.726Z,66.92
2022-11-07T14:10:38.696Z,67.19
2022-11-07T14:13:07.928Z,66.90
2022-11-07T14:15:36.048Z,66.74
2022-11-07T14:18:03.635Z,67.49
2022-11-07T14:20:30.250Z,67.10
2022-11-07T14:23:00.538Z,66.70
2022-11-07T14:25:32.604Z,66.44
2022-11-07T14:28:00.146Z,66.79
2022-11-07T14:30:29.108Z,66.86
2022-11-07T14:32:58.708Z,66.49
2022-11-07T14:35:35.007Z,66.11
2022-11-07T14:38:15.114Z,66.32
2022-11-07T14:40:42.571Z,65.97
2022-11-07T14:43:15.538Z,66.97
2022-11-07T14:46:11.398Z,66.64
2022-11-07T14:48:32.220Z,66.88
2022-11-07T14:50:59.616Z,67.19
2022-11-07T14:53:32.086Z,66.41
2022-11-07T14:56:03.678Z,66.87
2022-11-07T14:58:31.383Z,67.01
2022-11-07T15:01:10.817Z,67.57
2022-11-07T15:03:49.813Z,66.77
2022-11-07T15:06:28.168Z,67.14
2022-11-07T15:08:57.501Z,67.30
2022-11-07T15:11:36.165Z,67.20
2022-11-07T15:14:05.897Z,67.14
2022-11-07T15:16:37.388Z,67.38
2022-11-07T15:19:06.078Z,67.30
2022-11-07T15:21:37.220Z,67.05
2022-11-07T15:24:34.828Z,67.54
2022-11-07T15:27:16.430Z,67.05
2022-11-07T15:29:57.883Z,66.90
2022-11-07T15:32:28.456Z,66.77
2022-11-07T15:35:23.042Z,67.84
2022-11-07T15:37:57.470Z,67.34
2022-11-07T15:40:26.346Z,67.45
2022-11-07T15:42:52.989Z,67.20
2022-11-07T15:45:20.264Z,66.77
2022-11-07T15:47:47.093Z,66.83
2022-11-07T15:50:20.864Z,67.18
2022-11-07T15:52:48.608Z,66.48
2022-11-07T15:55:17.628Z,67.07
2022-11-07T15:57:46.880Z,66.72
2022-11-07T16:00:19.316Z,66.36
2022-11-07T16:02:46.242Z,66.44
2022-11-07T16:05:13.997Z,66.77
2022-11-07T16:07:42.545Z,66.60
2022-11-07T16:10:24.934Z,67.43
2022-11-07T16:12:52.011Z,66.99
2022-11-07T16:15:21.429Z,67.22
2022-11-07T16:17:48.297Z,66.86
2022-11-07T16:20:17.106Z,66.99
2022-11-07T16:22:45.120Z,66.71
2022-11-07T16:25:21.323Z,66.51
2022-11-07T16:27:59.035Z,67.01
2022-11-07T16:30:25.682Z,67.19
2022-11-07T16:32:52.035Z,66.55
2022-11-07T16:35:18.352Z,66.77
2022-11-07T16:37:44.660Z,67.12
2022-11-07T16:40:14.132Z,66.66
2022-11-07T16:42:40.586Z,67.50
2022-11-07T16:45:07.705Z,67.07
2022-11-07T16:47:39.337Z,67.20
2022-11-07T16:50:06.618Z,67.07
2022-11-07T16:52:33.563Z,66.86
2022-11-07T16:54:59.953Z,67.15
2022-11-07T16:57:26.332Z,66.87
2022-11-07T16:59:52.733Z,67.23
2022-11-07T17:02:24.821Z,67.49
2022-11-07T17:04:53.389Z,67.35
2022-11-07T17:07:22.717Z,67.28
2022-11-07T17:09:49.603Z,67.74
2022-11-07T17:12:24.814Z,67.65
2022-11-07T17:14:51.720Z,67.57
2022-11-07T17:17:19.054Z,67.15
2022-11-07T17:19:45.567Z,67.68
2022-11-07T17:22:13.464Z,67.45
2022-11-07T17:24:40.361Z,67.10
2022-11-07T17:27:25.424Z,67.34
2022-11-07T17:29:53.318Z,67.37
2022-11-07T17:32:20.317Z,67.24
2022-11-07T17:34:54.989Z,67.87
2022-11-07T17:37:33.118Z,67.83
2022-11-07T17:39:59.412Z,67.74
2022-11-07T17:42:25.728Z,67.54
2022-11-07T17:44:52.066Z,67.72
2022-11-07T17:47:28.836Z,67.95
2022-11-07T17:49:55.668Z,67.99
2022-11-07T17:52:22.308Z,67.50
2022-11-07T17:54:48.797Z,68.12
2022-11-07T17:57:15.190Z,67.96
2022-11-07T17:59:45.740Z,68.05
2022-11-07T18:02:18.622Z,67.63
2022-11-07T18:04:45.997Z,67.93
2022-11-07T18:07:12.790Z,68.30
2022-11-07T18:09:42.915Z,68.14
2022-11-07T18:12:10.558Z,67.81
2022-11-07T18:14:37.390Z,67.31
2022-11-07T18:17:04.327Z,67.48
2022-11-07T18:19:30.871Z,67.01
2022-11-07T18:21:57.192Z,67.20
2022-11-07T18:24:24.189Z,67.31
2022-11-07T18:26:51.782Z,68.05
2022-11-07T18:29:18.698Z,67.58
2022-11-07T18:31:47.291Z,67.18
2022-11-07T18:34:14.273Z,67.37
2022-11-07T18:36:42.340Z,67.27
2022-11-07T18:39:15.515Z,67.71
2022-11-07T18:41:42.347Z,67.25
2022-11-07T18:44:10.335Z,67.30
2022-11-07T18:46:37.263Z,67.46
2022-11-07T18:49:05.118Z,67.05
2022-11-07T18:51:32.477Z,67.09
2022-11-07T18:54:01.484Z,67.47
2022-11-07T18:56:28.282Z,67.41
2022-11-07T18:58:55.682Z,67.40
2022-11-07T19:01:26.449Z,67.67
2022-11-07T19:03:53.701Z,67.60
2022-11-07T19:06:22.089Z,67.82
2022-11-07T19:08:49.004Z,67.22
2022-11-07T19:11:18.159Z,67.30
2022-11-07T19:13:45.600Z,67.33
2022-11-07T19:16:16.963Z,67.60
2022-11-07T19:18:49.151Z,67.70
2022-11-07T19:21:19.690Z,67.88
2022-11-07T19:23:46.990Z,67.90
2022-11-07T19:26:13.852Z,67.66
2022-11-07T19:28:40.818Z,68.05
2022-11-07T19:31:09.877Z,67.97
2022-11-07T19:33:36.801Z,67.54
2022-11-07T19:36:06.636Z,68.06
2022-11-07T19:38:33.716Z,68.23
2022-11-07T19:41:05.161Z,68.13
2022-11-07T19:43:31.885Z,68.18
2022-11-07T19:45:59.117Z,68.10
2022-11-07T19:48:25.633Z,68.51
2022-11-07T19:50:52.065Z,68.25
2022-11-07T19:53:18.802Z,68.00
2022-11-07T19:55:45.323Z,68.14
2022-11-07T19:58:11.662Z,67.69
2022-11-07T20:00:38.110Z,67.93
2022-11-07T20:03:09.665Z,68.38
2022-11-07T20:05:43.809Z,68.11
2022-11-07T20:08:15.831Z,68.30
2022-11-07T20:10:46.681Z,68.36
2022-11-07T20:13:13.031Z,68.35
2022-11-07T20:15:39.819Z,68.67
2022-11-07T20:18:06.289Z,68.29
2022-11-07T20:20:32.604Z,68.20
2022-11-07T20:23:00.230Z,68.28
2022-11-07T20:25:26.716Z,68.57
2022-11-07T20:27:53.052Z,68.28
2022-11-07T20:30:19.729Z,68.33
2022-11-07T20:32:46.578Z,68.84
2022-11-07T20:35:12.899Z,68.82
2022-11-07T20:37:39.314Z,68.94
2022-11-07T20:40:06.322Z,69.19
2022-11-07T20:42:32.742Z,68.51
2022-11-07T20:44:59.136Z,68.54
2022-11-07T20:47:25.510Z,69.23
2022-11-07T20:49:51.847Z,69.18
2022-11-07T20:52:18.348Z,69.00
2022-11-07T20:54:44.766Z,68.99
2022-11-07T20:57:11.122Z,68.82
2022-11-07T20:59:37.595Z,69.01
2022-11-07T21:02:04.353Z,69.19
2022-11-07T21:04:44.412Z,69.19
2022-11-07T21:07:19.537Z,69.60
2022-11-07T21:09:46.262Z,70.32
2022-11-07T21:12:13.088Z,70.05
2022-11-07T21:14:41.561Z,69.95
2022-11-07T21:17:09.067Z,69.77
2022-11-07T21:19:35.365Z,69.49
2022-11-07T21:22:01.676Z,69.47
2022-11-07T21:24:31.630Z,69.73
2022-11-07T21:26:58.524Z,70.07
2022-11-07T21:29:29.453Z,70.50
2022-11-07T21:31:56.025Z,69.85
2022-11-07T21:34:22.349Z,69.73
2022-11-07T21:36:48.686Z,69.83
2022-11-07T21:39:16.194Z,69.78
2022-11-07T21:41:42.600Z,69.76
2022-11-07T21:44:11.163Z,69.92
2022-11-07T21:46:37.756Z,71.13
2022-11-07T21:49:06.014Z,71.20
2022-11-07T21:51:34.222Z,70.55
2022-11-07T21:54:01.433Z,70.47
2022-11-07T21:56:30.369Z,70.60
2022-11-07T21:59:00.137Z,70.63
2022-11-07T22:01:28.017Z,70.22
2022-11-07T22:04:11.188Z,70.52
2022-11-07T22:06:40.870Z,70.27
2022-11-07T22:09:08.923Z,70.34
2022-11-07T22:11:35.511Z,70.45
2022-11-07T22:14:02.579Z,70.67
2022-11-07T22:16:29.188Z,70.53
2022-11-07T22:18:55.647Z,70.92
2022-11-07T22:21:23.306Z,70.61
2022-11-07T22:23:50.480Z,70.65
2022-11-07T22:26:20.151Z,70.35
2022-11-07T22:28:47.368Z,70.21
2022-11-07T22:31:32.043Z,70.42
2022-11-07T22:33:59.135Z,70.48
2022-11-07T22:36:25.898Z,70.48
2022-11-07T22:38:52.282Z,70.35
2022-11-07T22:41:24.048Z,71.11
2022-11-07T22:43:51.137Z,70.58
2022-11-07T22:46:20.572Z,70.66
2022-11-07T22:48:48.622Z,71.13
2022-11-07T22:51:18.061Z,70.77
2022-11-07T22:53:44.392Z,70.81
2022-11-07T22:56:13.205Z,70.66
2022-11-07T22:58:40.157Z,70.99
2022-11-07T23:01:13.300Z,70.95
2022-11-07T23:03:39.630Z,70.79
2022-11-07T23:06:06.071Z,70.90
2022-11-07T23:08:36.269Z,70.78
2022-11-07T23:14:00.266Z,71.16
2022-11-07T23:16:37.372Z,71.07
2022-11-07T23:19:06.757Z,71.03
2022-11-07T23:21:33.726Z,70.98
2022-11-07T23:24:00.904Z,71.05
2022-11-07T23:26:35.218Z,70.96
2022-11-07T23:29:09.055Z,71.23
2022-11-07T23:31:37.220Z,71.14
2022-11-07T23:34:04.040Z,71.11
2022-11-07T23:36:30.359Z,71.19
2022-11-07T23:38:56.786Z,71.14
2022-11-07T23:41:23.114Z,71.19
2022-11-07T23:43:52.444Z,71.23
2022-11-07T23:46:37.768Z,71.04
2022-11-07T23:49:22.446Z,70.86
2022-11-07T23:51:48.680Z,70.62
2022-11-07T23:54:33.581Z,70.96
2022-11-07T23:57:00.583Z,70.99
2022-11-07T23:59:45.714Z,70.31
